sensor_id;sensor_type;location;lat;lon;timestamp;P1;durP1;ratioP1;P2;durP2;ratioP2
22282;SDS011;11310;51.528;21.204;2023-08-21T00:00:29;15.38;;;8.95;;
22282;SDS011;11310;51.528;21.204;2023-08-21T00:03:03;13.70;;;9.18;;
22282;SDS011;11310;51.528;21.204;2023-08-21T00:05:32;13.43;;;9.35;;
22282;SDS011;11310;51.528;21.204;2023-08-21T00:10:33;10.98;;;8.13;;
22282;SDS011;11310;51.528;21.204;2023-08-21T00:13:05;15.98;;;8.98;;
22282;SDS011;11310;51.528;21.204;2023-08-21T00:15:34;12.88;;;9.23;;
22282;SDS011;11310;51.528;21.204;2023-08-21T00:18:04;13.75;;;9.25;;
22282;SDS011;11310;51.528;21.204;2023-08-21T00:20:33;14.45;;;9.57;;
22282;SDS011;11310;51.528;21.204;2023-08-21T00:23:02;14.60;;;9.50;;
22282;SDS011;11310;51.528;21.204;2023-08-21T00:25:31;15.20;;;8.93;;
22282;SDS011;11310;51.528;21.204;2023-08-21T00:28:00;13.27;;;9.18;;
22282;SDS011;11310;51.528;21.204;2023-08-21T00:30:29;14.93;;;8.93;;
22282;SDS011;11310;51.528;21.204;2023-08-21T00:32:57;14.35;;;8.85;;
22282;SDS011;11310;51.528;21.204;2023-08-21T00:35:28;12.05;;;9.48;;
22282;SDS011;11310;51.528;21.204;2023-08-21T00:37:57;13.80;;;8.55;;
22282;SDS011;11310;51.528;21.204;2023-08-21T00:40:31;13.93;;;9.02;;
22282;SDS011;11310;51.528;21.204;2023-08-21T00:43:00;13.52;;;9.13;;
22282;SDS011;11310;51.528;21.204;2023-08-21T00:45:30;12.60;;;9.20;;
22282;SDS011;11310;51.528;21.204;2023-08-21T00:47:59;14.63;;;9.73;;
22282;SDS011;11310;51.528;21.204;2023-08-21T00:50:29;12.27;;;8.38;;
22282;SDS011;11310;51.528;21.204;2023-08-21T00:52:58;14.07;;;9.07;;
22282;SDS011;11310;51.528;21.204;2023-08-21T00:55:27;12.00;;;9.10;;
22282;SDS011;11310;51.528;21.204;2023-08-21T00:57:56;12.13;;;8.55;;
22282;SDS011;11310;51.528;21.204;2023-08-21T01:00:24;12.55;;;9.25;;
22282;SDS011;11310;51.528;21.204;2023-08-21T01:02:53;10.95;;;8.55;;
22282;SDS011;11310;51.528;21.204;2023-08-21T01:05:23;11.90;;;8.30;;
22282;SDS011;11310;51.528;21.204;2023-08-21T01:07:53;11.63;;;8.27;;
22282;SDS011;11310;51.528;21.204;2023-08-21T01:10:30;14.63;;;9.40;;
22282;SDS011;11310;51.528;21.204;2023-08-21T01:13:09;13.27;;;8.65;;
22282;SDS011;11310;51.528;21.204;2023-08-21T01:15:47;14.93;;;8.55;;
22282;SDS011;11310;51.528;21.204;2023-08-21T01:20:49;13.80;;;8.80;;
22282;SDS011;11310;51.528;21.204;2023-08-21T01:23:28;12.75;;;8.63;;
22282;SDS011;11310;51.528;21.204;2023-08-21T01:26:01;14.93;;;8.73;;
22282;SDS011;11310;51.528;21.204;2023-08-21T01:28:30;11.80;;;8.15;;
22282;SDS011;11310;51.528;21.204;2023-08-21T01:31:00;12.73;;;8.55;;
22282;SDS011;11310;51.528;21.204;2023-08-21T01:33:38;16.42;;;8.40;;
22282;SDS011;11310;51.528;21.204;2023-08-21T01:36:13;12.68;;;8.55;;
22282;SDS011;11310;51.528;21.204;2023-08-21T01:38:44;13.27;;;8.88;;
22282;SDS011;11310;51.528;21.204;2023-08-21T01:41:13;13.68;;;9.13;;
22282;SDS011;11310;51.528;21.204;2023-08-21T01:43:42;12.85;;;8.93;;
22282;SDS011;11310;51.528;21.204;2023-08-21T01:46:13;14.20;;;9.23;;
22282;SDS011;11310;51.528;21.204;2023-08-21T01:48:48;12.82;;;8.80;;
22282;SDS011;11310;51.528;21.204;2023-08-21T01:51:16;14.20;;;9.70;;
22282;SDS011;11310;51.528;21.204;2023-08-21T01:53:47;12.20;;;9.13;;
22282;SDS011;11310;51.528;21.204;2023-08-21T01:56:15;14.35;;;9.57;;
22282;SDS011;11310;51.528;21.204;2023-08-21T01:58:44;11.48;;;8.30;;
22282;SDS011;11310;51.528;21.204;2023-08-21T02:01:13;15.23;;;8.77;;
22282;SDS011;11310;51.528;21.204;2023-08-21T02:03:41;12.82;;;8.38;;
22282;SDS011;11310;51.528;21.204;2023-08-21T02:06:10;13.43;;;9.45;;
22282;SDS011;11310;51.528;21.204;2023-08-21T02:08:38;11.70;;;8.70;;
22282;SDS011;11310;51.528;21.204;2023-08-21T02:11:09;13.40;;;9.20;;
22282;SDS011;11310;51.528;21.204;2023-08-21T02:13:37;14.52;;;8.80;;
22282;SDS011;11310;51.528;21.204;2023-08-21T02:16:06;16.00;;;8.77;;
22282;SDS011;11310;51.528;21.204;2023-08-21T02:18:35;12.23;;;8.65;;
22282;SDS011;11310;51.528;21.204;2023-08-21T02:21:04;14.70;;;9.65;;
22282;SDS011;11310;51.528;21.204;2023-08-21T02:23:32;16.17;;;9.40;;
22282;SDS011;11310;51.528;21.204;2023-08-21T02:26:01;13.50;;;8.63;;
22282;SDS011;11310;51.528;21.204;2023-08-21T02:28:31;12.73;;;8.55;;
22282;SDS011;11310;51.528;21.204;2023-08-21T02:30:59;12.60;;;9.23;;
22282;SDS011;11310;51.528;21.204;2023-08-21T02:33:28;12.40;;;8.73;;
22282;SDS011;11310;51.528;21.204;2023-08-21T02:35:57;12.52;;;9.25;;
22282;SDS011;11310;51.528;21.204;2023-08-21T02:40:57;11.23;;;8.13;;
22282;SDS011;11310;51.528;21.204;2023-08-21T02:43:26;13.80;;;9.10;;
22282;SDS011;11310;51.528;21.204;2023-08-21T02:45:56;12.73;;;9.15;;
22282;SDS011;11310;51.528;21.204;2023-08-21T02:48:25;12.77;;;8.45;;
22282;SDS011;11310;51.528;21.204;2023-08-21T02:50:54;16.30;;;8.65;;
22282;SDS011;11310;51.528;21.204;2023-08-21T02:53:22;12.88;;;9.13;;
22282;SDS011;11310;51.528;21.204;2023-08-21T02:55:52;12.02;;;8.63;;
22282;SDS011;11310;51.528;21.204;2023-08-21T02:58:21;12.68;;;9.00;;
22282;SDS011;11310;51.528;21.204;2023-08-21T03:00:49;15.25;;;9.60;;
22282;SDS011;11310;51.528;21.204;2023-08-21T03:03:19;13.10;;;9.02;;
22282;SDS011;11310;51.528;21.204;2023-08-21T03:05:49;14.27;;;9.03;;
22282;SDS011;11310;51.528;21.204;2023-08-21T03:08:18;16.52;;;9.20;;
22282;SDS011;11310;51.528;21.204;2023-08-21T03:10:46;16.55;;;9.20;;
22282;SDS011;11310;51.528;21.204;2023-08-21T03:13:15;15.07;;;9.23;;
22282;SDS011;11310;51.528;21.204;2023-08-21T03:15:46;13.70;;;9.88;;
22282;SDS011;11310;51.528;21.204;2023-08-21T03:18:15;12.68;;;8.63;;
22282;SDS011;11310;51.528;21.204;2023-08-21T03:20:46;14.18;;;9.50;;
22282;SDS011;11310;51.528;21.204;2023-08-21T03:23:17;12.88;;;9.23;;
22282;SDS011;11310;51.528;21.204;2023-08-21T03:25:46;14.30;;;9.18;;
22282;SDS011;11310;51.528;21.204;2023-08-21T03:28:15;13.52;;;8.85;;
22282;SDS011;11310;51.528;21.204;2023-08-21T03:30:44;11.05;;;8.02;;
22282;SDS011;11310;51.528;21.204;2023-08-21T03:33:13;12.80;;;9.10;;
22282;SDS011;11310;51.528;21.204;2023-08-21T03:35:43;11.90;;;9.07;;
22282;SDS011;11310;51.528;21.204;2023-08-21T03:38:14;14.48;;;8.68;;
22282;SDS011;11310;51.528;21.204;2023-08-21T03:40:45;13.70;;;8.57;;
22282;SDS011;11310;51.528;21.204;2023-08-21T03:43:14;14.07;;;8.55;;
22282;SDS011;11310;51.528;21.204;2023-08-21T03:45:43;12.90;;;8.63;;
22282;SDS011;11310;51.528;21.204;2023-08-21T03:48:12;12.88;;;8.98;;
22282;SDS011;11310;51.528;21.204;2023-08-21T03:50:44;11.48;;;8.30;;
22282;SDS011;11310;51.528;21.204;2023-08-21T03:53:15;15.07;;;8.60;;
22282;SDS011;11310;51.528;21.204;2023-08-21T03:55:44;15.77;;;8.40;;
22282;SDS011;11310;51.528;21.204;2023-08-21T03:58:13;13.98;;;8.60;;
22282;SDS011;11310;51.528;21.204;2023-08-21T04:00:43;14.07;;;8.43;;
22282;SDS011;11310;51.528;21.204;2023-08-21T04:03:15;14.25;;;8.98;;
22282;SDS011;11310;51.528;21.204;2023-08-21T04:05:45;13.90;;;9.05;;
22282;SDS011;11310;51.528;21.204;2023-08-21T04:08:16;12.85;;;9.00;;
22282;SDS011;11310;51.528;21.204;2023-08-21T04:10:45;13.02;;;8.77;;
22282;SDS011;11310;51.528;21.204;2023-08-21T04:13:14;13.98;;;8.85;;
22282;SDS011;11310;51.528;21.204;2023-08-21T04:15:44;14.10;;;8.45;;
22282;SDS011;11310;51.528;21.204;2023-08-21T04:18:15;15.20;;;8.75;;
22282;SDS011;11310;51.528;21.204;2023-08-21T04:21:00;10.90;;;8.05;;
22282;SDS011;11310;51.528;21.204;2023-08-21T04:23:30;12.27;;;8.52;;
22282;SDS011;11310;51.528;21.204;2023-08-21T04:26:00;13.35;;;9.48;;
22282;SDS011;11310;51.528;21.204;2023-08-21T04:28:30;13.43;;;9.13;;
22282;SDS011;11310;51.528;21.204;2023-08-21T04:31:04;15.10;;;9.60;;
22282;SDS011;11310;51.528;21.204;2023-08-21T04:33:34;13.73;;;9.02;;
22282;SDS011;11310;51.528;21.204;2023-08-21T04:36:03;12.20;;;8.68;;
22282;SDS011;11310;51.528;21.204;2023-08-21T04:38:39;13.35;;;8.20;;
22282;SDS011;11310;51.528;21.204;2023-08-21T04:41:08;13.23;;;9.07;;
22282;SDS011;11310;51.528;21.204;2023-08-21T04:43:43;14.45;;;8.35;;
22282;SDS011;11310;51.528;21.204;2023-08-21T04:46:13;14.00;;;8.07;;
22282;SDS011;11310;51.528;21.204;2023-08-21T04:48:44;13.23;;;8.93;;
22282;SDS011;11310;51.528;21.204;2023-08-21T04:51:13;12.80;;;9.10;;
22282;SDS011;11310;51.528;21.204;2023-08-21T04:53:43;11.75;;;8.80;;
22282;SDS011;11310;51.528;21.204;2023-08-21T04:56:16;12.00;;;8.73;;
22282;SDS011;11310;51.528;21.204;2023-08-21T04:58:45;12.40;;;8.88;;
22282;SDS011;11310;51.528;21.204;2023-08-21T05:01:16;12.85;;;8.13;;
22282;SDS011;11310;51.528;21.204;2023-08-21T05:03:47;13.95;;;8.68;;
22282;SDS011;11310;51.528;21.204;2023-08-21T05:06:18;13.25;;;8.50;;
22282;SDS011;11310;51.528;21.204;2023-08-21T05:08:48;11.70;;;8.00;;
22282;SDS011;11310;51.528;21.204;2023-08-21T05:11:17;11.75;;;8.27;;
22282;SDS011;11310;51.528;21.204;2023-08-21T05:13:46;14.00;;;9.07;;
22282;SDS011;11310;51.528;21.204;2023-08-21T05:16:17;12.48;;;8.43;;
22282;SDS011;11310;51.528;21.204;2023-08-21T05:18:49;16.83;;;9.23;;
22282;SDS011;11310;51.528;21.204;2023-08-21T05:21:18;13.18;;;8.77;;
22282;SDS011;11310;51.528;21.204;2023-08-21T05:23:48;12.95;;;8.32;;
22282;SDS011;11310;51.528;21.204;2023-08-21T05:26:17;12.20;;;8.82;;
22282;SDS011;11310;51.528;21.204;2023-08-21T05:28:46;14.32;;;8.57;;
22282;SDS011;11310;51.528;21.204;2023-08-21T05:31:15;14.27;;;9.10;;
22282;SDS011;11310;51.528;21.204;2023-08-21T05:33:49;13.75;;;8.15;;
22282;SDS011;11310;51.528;21.204;2023-08-21T05:36:18;13.48;;;8.75;;
22282;SDS011;11310;51.528;21.204;2023-08-21T05:38:48;12.10;;;8.32;;
22282;SDS011;11310;51.528;21.204;2023-08-21T05:41:18;13.15;;;8.35;;
22282;SDS011;11310;51.528;21.204;2023-08-21T05:43:48;12.30;;;7.82;;
22282;SDS011;11310;51.528;21.204;2023-08-21T05:46:16;14.27;;;7.72;;
22282;SDS011;11310;51.528;21.204;2023-08-21T05:48:45;13.43;;;7.93;;
22282;SDS011;11310;51.528;21.204;2023-08-21T05:51:16;11.57;;;7.18;;
22282;SDS011;11310;51.528;21.204;2023-08-21T05:53:44;11.88;;;7.50;;
22282;SDS011;11310;51.528;21.204;2023-08-21T05:56:14;11.10;;;7.57;;
22282;SDS011;11310;51.528;21.204;2023-08-21T05:58:43;15.35;;;7.22;;
22282;SDS011;11310;51.528;21.204;2023-08-21T06:01:12;11.82;;;7.60;;
22282;SDS011;11310;51.528;21.204;2023-08-21T06:03:41;12.38;;;7.85;;
22282;SDS011;11310;51.528;21.204;2023-08-21T06:06:33;13.50;;;7.75;;
22282;SDS011;11310;51.528;21.204;2023-08-21T06:09:02;14.88;;;8.30;;
22282;SDS011;11310;51.528;21.204;2023-08-21T06:11:33;11.40;;;7.60;;
22282;SDS011;11310;51.528;21.204;2023-08-21T06:14:03;14.32;;;8.00;;
22282;SDS011;11310;51.528;21.204;2023-08-21T06:16:31;12.52;;;8.32;;
22282;SDS011;11310;51.528;21.204;2023-08-21T06:19:00;14.02;;;8.02;;
22282;SDS011;11310;51.528;21.204;2023-08-21T06:21:29;13.75;;;8.32;;
22282;SDS011;11310;51.528;21.204;2023-08-21T06:23:58;11.75;;;8.38;;
22282;SDS011;11310;51.528;21.204;2023-08-21T06:26:27;13.35;;;7.82;;
22282;SDS011;11310;51.528;21.204;2023-08-21T06:28:58;12.18;;;7.93;;
22282;SDS011;11310;51.528;21.204;2023-08-21T06:31:27;10.68;;;7.97;;
22282;SDS011;11310;51.528;21.204;2023-08-21T06:33:57;12.75;;;8.13;;
22282;SDS011;11310;51.528;21.204;2023-08-21T06:36:26;13.07;;;8.10;;
22282;SDS011;11310;51.528;21.204;2023-08-21T06:38:55;10.60;;;7.68;;
22282;SDS011;11310;51.528;21.204;2023-08-21T06:41:24;13.88;;;8.23;;
22282;SDS011;11310;51.528;21.204;2023-08-21T06:43:54;13.15;;;8.55;;
22282;SDS011;11310;51.528;21.204;2023-08-21T06:46:25;14.10;;;8.98;;
22282;SDS011;11310;51.528;21.204;2023-08-21T06:48:54;13.38;;;8.25;;
22282;SDS011;11310;51.528;21.204;2023-08-21T06:51:23;13.50;;;7.93;;
22282;SDS011;11310;51.528;21.204;2023-08-21T06:53:52;10.40;;;7.85;;
22282;SDS011;11310;51.528;21.204;2023-08-21T06:56:22;12.32;;;7.57;;
22282;SDS011;11310;51.528;21.204;2023-08-21T06:58:51;12.68;;;7.55;;
22282;SDS011;11310;51.528;21.204;2023-08-21T07:01:22;10.90;;;7.33;;
22282;SDS011;11310;51.528;21.204;2023-08-21T07:03:52;12.10;;;7.65;;
22282;SDS011;11310;51.528;21.204;2023-08-21T07:06:20;10.10;;;6.95;;
22282;SDS011;11310;51.528;21.204;2023-08-21T07:08:49;10.77;;;6.85;;
22282;SDS011;11310;51.528;21.204;2023-08-21T07:11:17;15.75;;;6.78;;
22282;SDS011;11310;51.528;21.204;2023-08-21T07:13:46;11.20;;;6.85;;
22282;SDS011;11310;51.528;21.204;2023-08-21T07:16:15;12.02;;;6.85;;
22282;SDS011;11310;51.528;21.204;2023-08-21T07:18:44;12.98;;;7.00;;
22282;SDS011;11310;51.528;21.204;2023-08-21T07:21:15;10.98;;;7.03;;
22282;SDS011;11310;51.528;21.204;2023-08-21T07:23:59;13.93;;;7.53;;
22282;SDS011;11310;51.528;21.204;2023-08-21T07:26:31;10.38;;;6.47;;
22282;SDS011;11310;51.528;21.204;2023-08-21T07:29:00;16.58;;;7.45;;
22282;SDS011;11310;51.528;21.204;2023-08-21T07:31:31;10.88;;;6.70;;
22282;SDS011;11310;51.528;21.204;2023-08-21T07:34:01;13.70;;;8.07;;
22282;SDS011;11310;51.528;21.204;2023-08-21T07:36:33;11.98;;;7.72;;
22282;SDS011;11310;51.528;21.204;2023-08-21T07:39:01;14.13;;;8.80;;
22282;SDS011;11310;51.528;21.204;2023-08-21T07:41:30;14.05;;;9.55;;
22282;SDS011;11310;51.528;21.204;2023-08-21T07:44:02;14.55;;;9.65;;
22282;SDS011;11310;51.528;21.204;2023-08-21T07:46:31;13.77;;;10.60;;
22282;SDS011;11310;51.528;21.204;2023-08-21T07:49:00;14.20;;;10.52;;
22282;SDS011;11310;51.528;21.204;2023-08-21T07:51:33;15.80;;;10.20;;
22282;SDS011;11310;51.528;21.204;2023-08-21T07:54:02;19.48;;;9.68;;
22282;SDS011;11310;51.528;21.204;2023-08-21T07:56:30;13.40;;;9.20;;
22282;SDS011;11310;51.528;21.204;2023-08-21T07:59:00;12.85;;;9.00;;
22282;SDS011;11310;51.528;21.204;2023-08-21T08:01:29;12.35;;;8.30;;
22282;SDS011;11310;51.528;21.204;2023-08-21T08:03:57;10.63;;;7.85;;
22282;SDS011;11310;51.528;21.204;2023-08-21T08:06:28;10.77;;;7.72;;
22282;SDS011;11310;51.528;21.204;2023-08-21T08:08:58;10.77;;;8.10;;
22282;SDS011;11310;51.528;21.204;2023-08-21T08:11:28;11.98;;;8.02;;
22282;SDS011;11310;51.528;21.204;2023-08-21T08:13:57;12.05;;;8.18;;
22282;SDS011;11310;51.528;21.204;2023-08-21T08:16:25;11.00;;;7.63;;
22282;SDS011;11310;51.528;21.204;2023-08-21T08:18:54;11.35;;;7.75;;
22282;SDS011;11310;51.528;21.204;2023-08-21T08:21:25;10.88;;;7.55;;
22282;SDS011;11310;51.528;21.204;2023-08-21T08:23:53;9.68;;;6.50;;
22282;SDS011;11310;51.528;21.204;2023-08-21T08:26:26;10.75;;;7.60;;
22282;SDS011;11310;51.528;21.204;2023-08-21T08:28:56;9.90;;;6.70;;
22282;SDS011;11310;51.528;21.204;2023-08-21T08:31:24;10.25;;;6.95;;
22282;SDS011;11310;51.528;21.204;2023-08-21T08:33:54;10.98;;;6.75;;
22282;SDS011;11310;51.528;21.204;2023-08-21T08:36:23;11.73;;;6.82;;
22282;SDS011;11310;51.528;21.204;2023-08-21T08:38:52;10.18;;;6.57;;
22282;SDS011;11310;51.528;21.204;2023-08-21T08:41:24;9.13;;;6.43;;
22282;SDS011;11310;51.528;21.204;2023-08-21T08:43:58;8.13;;;5.50;;
22282;SDS011;11310;51.528;21.204;2023-08-21T08:46:29;10.20;;;6.40;;
22282;SDS011;11310;51.528;21.204;2023-08-21T08:48:58;15.90;;;6.07;;
22282;SDS011;11310;51.528;21.204;2023-08-21T08:51:28;8.10;;;6.07;;
22282;SDS011;11310;51.528;21.204;2023-08-21T08:54:01;9.60;;;6.45;;
22282;SDS011;11310;51.528;21.204;2023-08-21T08:56:32;9.68;;;5.55;;
22282;SDS011;11310;51.528;21.204;2023-08-21T08:59:01;12.15;;;6.60;;
22282;SDS011;11310;51.528;21.204;2023-08-21T09:04:03;9.55;;;5.78;;
22282;SDS011;11310;51.528;21.204;2023-08-21T09:06:32;12.82;;;5.75;;
22282;SDS011;11310;51.528;21.204;2023-08-21T09:09:01;8.13;;;5.13;;
22282;SDS011;11310;51.528;21.204;2023-08-21T09:11:31;9.15;;;5.32;;
22282;SDS011;11310;51.528;21.204;2023-08-21T09:14:01;8.27;;;5.43;;
22282;SDS011;11310;51.528;21.204;2023-08-21T09:16:29;7.82;;;4.63;;
22282;SDS011;11310;51.528;21.204;2023-08-21T09:18:59;6.38;;;4.43;;
22282;SDS011;11310;51.528;21.204;2023-08-21T09:21:27;6.43;;;4.50;;
22282;SDS011;11310;51.528;21.204;2023-08-21T09:23:58;5.78;;;3.63;;
22282;SDS011;11310;51.528;21.204;2023-08-21T09:26:29;6.83;;;3.70;;
22282;SDS011;11310;51.528;21.204;2023-08-21T09:29:02;6.93;;;3.58;;
22282;SDS011;11310;51.528;21.204;2023-08-21T09:31:36;8.10;;;3.45;;
22282;SDS011;11310;51.528;21.204;2023-08-21T09:34:06;5.47;;;3.60;;
22282;SDS011;11310;51.528;21.204;2023-08-21T09:36:37;5.75;;;3.70;;
22282;SDS011;11310;51.528;21.204;2023-08-21T09:39:07;6.47;;;4.10;;
22282;SDS011;11310;51.528;21.204;2023-08-21T09:41:47;7.43;;;3.70;;
22282;SDS011;11310;51.528;21.204;2023-08-21T09:44:25;5.57;;;3.63;;
22282;SDS011;11310;51.528;21.204;2023-08-21T09:46:55;7.63;;;3.60;;
22282;SDS011;11310;51.528;21.204;2023-08-21T09:49:30;6.50;;;3.45;;
22282;SDS011;11310;51.528;21.204;2023-08-21T09:52:01;5.28;;;3.50;;
22282;SDS011;11310;51.528;21.204;2023-08-21T09:54:34;5.90;;;3.47;;
22282;SDS011;11310;51.528;21.204;2023-08-21T09:57:06;5.00;;;3.40;;
22282;SDS011;11310;51.528;21.204;2023-08-21T09:59:36;5.05;;;3.13;;
22282;SDS011;11310;51.528;21.204;2023-08-21T10:02:09;4.72;;;2.97;;
22282;SDS011;11310;51.528;21.204;2023-08-21T10:04:41;4.22;;;2.78;;
22282;SDS011;11310;51.528;21.204;2023-08-21T10:07:14;4.82;;;3.20;;
22282;SDS011;11310;51.528;21.204;2023-08-21T10:09:47;4.38;;;2.65;;
22282;SDS011;11310;51.528;21.204;2023-08-21T10:12:18;3.97;;;2.63;;
22282;SDS011;11310;51.528;21.204;2023-08-21T10:14:51;4.97;;;2.90;;
22282;SDS011;11310;51.528;21.204;2023-08-21T10:17:21;6.25;;;3.20;;
22282;SDS011;11310;51.528;21.204;2023-08-21T10:19:51;7.57;;;2.90;;
22282;SDS011;11310;51.528;21.204;2023-08-21T10:22:38;6.03;;;3.08;;
22282;SDS011;11310;51.528;21.204;2023-08-21T10:25:14;3.35;;;2.40;;
22282;SDS011;11310;51.528;21.204;2023-08-21T10:27:48;4.97;;;3.10;;
22282;SDS011;11310;51.528;21.204;2023-08-21T10:30:20;9.48;;;3.10;;
22282;SDS011;11310;51.528;21.204;2023-08-21T10:32:52;5.18;;;3.13;;
22282;SDS011;11310;51.528;21.204;2023-08-21T10:35:22;5.45;;;3.20;;
22282;SDS011;11310;51.528;21.204;2023-08-21T10:38:06;5.20;;;3.17;;
22282;SDS011;11310;51.528;21.204;2023-08-21T10:40:38;7.70;;;3.65;;
22282;SDS011;11310;51.528;21.204;2023-08-21T10:46:10;6.68;;;3.22;;
22282;SDS011;11310;51.528;21.204;2023-08-21T10:48:40;4.22;;;3.00;;
22282;SDS011;11310;51.528;21.204;2023-08-21T10:51:13;6.20;;;3.13;;
22282;SDS011;11310;51.528;21.204;2023-08-21T10:53:45;11.18;;;3.40;;
22282;SDS011;11310;51.528;21.204;2023-08-21T10:56:17;6.30;;;3.35;;
22282;SDS011;11310;51.528;21.204;2023-08-21T10:58:48;5.28;;;3.50;;
22282;SDS011;11310;51.528;21.204;2023-08-21T11:01:18;5.10;;;3.15;;
22282;SDS011;11310;51.528;21.204;2023-08-21T11:03:50;6.43;;;3.40;;
22282;SDS011;11310;51.528;21.204;2023-08-21T11:06:19;6.20;;;3.45;;
22282;SDS011;11310;51.528;21.204;2023-08-21T11:08:47;5.95;;;3.47;;
22282;SDS011;11310;51.528;21.204;2023-08-21T11:11:16;5.20;;;3.17;;
22282;SDS011;11310;51.528;21.204;2023-08-21T11:13:53;5.43;;;3.50;;
22282;SDS011;11310;51.528;21.204;2023-08-21T11:16:25;5.85;;;3.35;;
22282;SDS011;11310;51.528;21.204;2023-08-21T11:18:54;6.28;;;3.50;;
22282;SDS011;11310;51.528;21.204;2023-08-21T11:21:23;4.72;;;3.03;;
22282;SDS011;11310;51.528;21.204;2023-08-21T11:23:53;9.07;;;3.28;;
22282;SDS011;11310;51.528;21.204;2023-08-21T11:26:21;4.90;;;3.08;;
22282;SDS011;11310;51.528;21.204;2023-08-21T11:31:27;5.97;;;3.17;;
22282;SDS011;11310;51.528;21.204;2023-08-21T11:33:59;6.07;;;3.47;;
22282;SDS011;11310;51.528;21.204;2023-08-21T11:36:48;4.95;;;3.30;;
22282;SDS011;11310;51.528;21.204;2023-08-21T11:39:20;5.00;;;3.25;;
22282;SDS011;11310;51.528;21.204;2023-08-21T11:41:54;5.65;;;3.30;;
22282;SDS011;11310;51.528;21.204;2023-08-21T11:44:25;5.47;;;3.40;;
22282;SDS011;11310;51.528;21.204;2023-08-21T11:46:54;7.10;;;3.60;;
22282;SDS011;11310;51.528;21.204;2023-08-21T11:49:24;6.07;;;3.17;;
22282;SDS011;11310;51.528;21.204;2023-08-21T11:51:53;5.47;;;3.17;;
22282;SDS011;11310;51.528;21.204;2023-08-21T11:54:23;4.40;;;3.10;;
22282;SDS011;11310;51.528;21.204;2023-08-21T11:56:53;5.72;;;2.88;;
22282;SDS011;11310;51.528;21.204;2023-08-21T11:59:22;4.10;;;3.00;;
22282;SDS011;11310;51.528;21.204;2023-08-21T12:01:52;4.68;;;2.60;;
22282;SDS011;11310;51.528;21.204;2023-08-21T12:04:21;3.92;;;2.70;;
22282;SDS011;11310;51.528;21.204;2023-08-21T12:06:52;4.95;;;3.03;;
22282;SDS011;11310;51.528;21.204;2023-08-21T12:09:21;3.83;;;2.22;;
22282;SDS011;11310;51.528;21.204;2023-08-21T12:11:50;4.00;;;2.58;;
22282;SDS011;11310;51.528;21.204;2023-08-21T12:14:21;4.73;;;2.50;;
22282;SDS011;11310;51.528;21.204;2023-08-21T12:16:51;3.08;;;2.13;;
22282;SDS011;11310;51.528;21.204;2023-08-21T12:19:21;4.25;;;2.60;;
22282;SDS011;11310;51.528;21.204;2023-08-21T12:21:51;6.57;;;2.80;;
22282;SDS011;11310;51.528;21.204;2023-08-21T12:24:20;4.65;;;2.45;;
22282;SDS011;11310;51.528;21.204;2023-08-21T12:26:49;5.00;;;2.95;;
22282;SDS011;11310;51.528;21.204;2023-08-21T12:29:18;4.97;;;2.92;;
22282;SDS011;11310;51.528;21.204;2023-08-21T12:31:46;6.53;;;3.20;;
22282;SDS011;11310;51.528;21.204;2023-08-21T12:34:17;5.05;;;2.95;;
22282;SDS011;11310;51.528;21.204;2023-08-21T12:36:46;3.97;;;2.80;;
22282;SDS011;11310;51.528;21.204;2023-08-21T12:39:15;5.45;;;3.05;;
22282;SDS011;11310;51.528;21.204;2023-08-21T12:41:45;6.20;;;2.75;;
22282;SDS011;11310;51.528;21.204;2023-08-21T12:44:14;5.32;;;2.90;;
22282;SDS011;11310;51.528;21.204;2023-08-21T12:46:43;4.25;;;2.30;;
22282;SDS011;11310;51.528;21.204;2023-08-21T12:49:11;4.20;;;2.50;;
22282;SDS011;11310;51.528;21.204;2023-08-21T12:51:41;3.70;;;2.40;;
22282;SDS011;11310;51.528;21.204;2023-08-21T12:54:10;3.78;;;2.22;;
22282;SDS011;11310;51.528;21.204;2023-08-21T12:56:39;4.50;;;2.00;;
22282;SDS011;11310;51.528;21.204;2023-08-21T12:59:07;4.00;;;2.10;;
22282;SDS011;11310;51.528;21.204;2023-08-21T13:01:36;6.10;;;1.95;;
22282;SDS011;11310;51.528;21.204;2023-08-21T13:04:04;3.10;;;2.15;;
22282;SDS011;11310;51.528;21.204;2023-08-21T13:06:32;3.58;;;2.05;;
22282;SDS011;11310;51.528;21.204;2023-08-21T13:09:02;3.47;;;2.13;;
22282;SDS011;11310;51.528;21.204;2023-08-21T13:11:33;6.00;;;2.30;;
22282;SDS011;11310;51.528;21.204;2023-08-21T13:14:02;6.05;;;2.35;;
22282;SDS011;11310;51.528;21.204;2023-08-21T13:16:30;4.03;;;2.45;;
22282;SDS011;11310;51.528;21.204;2023-08-21T13:18:59;3.65;;;2.30;;
22282;SDS011;11310;51.528;21.204;2023-08-21T13:21:28;4.03;;;2.10;;
22282;SDS011;11310;51.528;21.204;2023-08-21T13:23:57;4.28;;;2.10;;
22282;SDS011;11310;51.528;21.204;2023-08-21T13:26:30;4.60;;;2.15;;
22282;SDS011;11310;51.528;21.204;2023-08-21T13:29:00;3.97;;;2.33;;
22282;SDS011;11310;51.528;21.204;2023-08-21T13:31:29;3.25;;;2.15;;
22282;SDS011;11310;51.528;21.204;2023-08-21T13:33:58;4.55;;;2.45;;
22282;SDS011;11310;51.528;21.204;2023-08-21T13:36:27;5.93;;;2.47;;
22282;SDS011;11310;51.528;21.204;2023-08-21T13:38:55;7.90;;;2.80;;
22282;SDS011;11310;51.528;21.204;2023-08-21T13:41:25;5.20;;;2.38;;
22282;SDS011;11310;51.528;21.204;2023-08-21T13:43:55;5.95;;;2.60;;
22282;SDS011;11310;51.528;21.204;2023-08-21T13:46:25;4.43;;;2.47;;
22282;SDS011;11310;51.528;21.204;2023-08-21T13:48:54;4.00;;;2.45;;
22282;SDS011;11310;51.528;21.204;2023-08-21T13:51:26;3.95;;;2.60;;
22282;SDS011;11310;51.528;21.204;2023-08-21T13:53:55;3.95;;;2.50;;
22282;SDS011;11310;51.528;21.204;2023-08-21T13:56:27;4.75;;;2.60;;
22282;SDS011;11310;51.528;21.204;2023-08-21T13:58:57;4.95;;;2.80;;
22282;SDS011;11310;51.528;21.204;2023-08-21T14:01:29;4.85;;;2.55;;
22282;SDS011;11310;51.528;21.204;2023-08-21T14:03:58;5.13;;;3.13;;
22282;SDS011;11310;51.528;21.204;2023-08-21T14:06:26;5.05;;;2.83;;
22282;SDS011;11310;51.528;21.204;2023-08-21T14:08:59;8.38;;;2.88;;
22282;SDS011;11310;51.528;21.204;2023-08-21T14:11:28;5.40;;;2.70;;
22282;SDS011;11310;51.528;21.204;2023-08-21T14:13:59;5.30;;;3.20;;
22282;SDS011;11310;51.528;21.204;2023-08-21T14:16:28;6.00;;;2.88;;
22282;SDS011;11310;51.528;21.204;2023-08-21T14:18:57;5.38;;;3.20;;
22282;SDS011;11310;51.528;21.204;2023-08-21T14:21:25;4.88;;;2.90;;
22282;SDS011;11310;51.528;21.204;2023-08-21T14:23:54;4.03;;;2.58;;
22282;SDS011;11310;51.528;21.204;2023-08-21T14:26:22;4.50;;;2.60;;
22282;SDS011;11310;51.528;21.204;2023-08-21T14:28:51;3.95;;;2.60;;
22282;SDS011;11310;51.528;21.204;2023-08-21T14:31:21;6.13;;;2.60;;
22282;SDS011;11310;51.528;21.204;2023-08-21T14:33:49;4.47;;;2.42;;
22282;SDS011;11310;51.528;21.204;2023-08-21T14:36:17;4.00;;;2.40;;
22282;SDS011;11310;51.528;21.204;2023-08-21T14:38:47;5.47;;;2.95;;
22282;SDS011;11310;51.528;21.204;2023-08-21T14:41:15;4.32;;;2.58;;
22282;SDS011;11310;51.528;21.204;2023-08-21T14:43:44;6.78;;;2.58;;
22282;SDS011;11310;51.528;21.204;2023-08-21T14:46:12;5.45;;;2.85;;
22282;SDS011;11310;51.528;21.204;2023-08-21T14:48:57;3.55;;;2.28;;
22282;SDS011;11310;51.528;21.204;2023-08-21T14:51:26;4.28;;;2.90;;
22282;SDS011;11310;51.528;21.204;2023-08-21T14:53:55;6.60;;;3.30;;
22282;SDS011;11310;51.528;21.204;2023-08-21T14:56:24;5.90;;;3.28;;
22282;SDS011;11310;51.528;21.204;2023-08-21T14:58:52;4.50;;;2.80;;